createdAt,value
2023-05-19T00:01:05.417Z,14.71
2023-05-19T00:03:40.299Z,14.61
2023-05-19T00:06:09.550Z,14.63
2023-05-19T00:08:39.251Z,14.49
2023-05-19T00:11:08.081Z,14.46
2023-05-19T00:13:37.259Z,14.31
2023-05-19T00:16:05.991Z,14.41
2023-05-19T00:18:35.759Z,14.68
2023-05-19T00:21:03.848Z,14.66
2023-05-19T00:23:32.270Z,14.47
2023-05-19T00:26:00.420Z,14.55
2023-05-19T00:28:28.751Z,14.37
2023-05-19T00:30:57.017Z,14.43
2023-05-19T00:33:25.556Z,14.46
2023-05-19T00:35:54.985Z,14.28
2023-05-19T00:38:23.399Z,14.24
2023-05-19T00:40:51.501Z,14.22
2023-05-19T00:43:19.813Z,14.12
2023-05-19T00:45:48.045Z,14.39
2023-05-19T00:48:16.503Z,14.13
2023-05-19T00:50:44.765Z,13.79
2023-05-19T00:53:14.782Z,13.71
2023-05-19T00:55:43.694Z,13.52
2023-05-19T00:58:13.792Z,13.65
2023-05-19T01:00:42.649Z,13.65
2023-05-19T01:03:12.165Z,13.70
2023-05-19T01:05:44.667Z,13.82
2023-05-19T01:08:14.622Z,13.90
2023-05-19T01:10:42.789Z,13.90
2023-05-19T01:13:11.808Z,13.73
2023-05-19T01:15:48.633Z,13.83
2023-05-19T01:18:22.772Z,13.42
2023-05-19T01:20:57.946Z,13.38
2023-05-19T01:23:36.495Z,13.60
2023-05-19T01:26:32.834Z,13.73
2023-05-19T01:29:09.243Z,13.77
2023-05-19T01:31:40.031Z,13.81
2023-05-19T01:34:08.815Z,13.93
2023-05-19T01:36:37.207Z,13.83
2023-05-19T01:39:05.661Z,13.77
2023-05-19T01:41:34.745Z,13.58
2023-05-19T01:44:03.408Z,13.76
2023-05-19T01:46:31.525Z,13.85
2023-05-19T01:49:01.218Z,13.82
2023-05-19T01:51:29.335Z,13.73
2023-05-19T01:53:57.617Z,13.69
2023-05-19T01:56:33.973Z,13.38
2023-05-19T01:59:12.033Z,13.62
2023-05-19T02:01:47.637Z,13.38
2023-05-19T02:04:23.708Z,13.33
2023-05-19T02:07:02.178Z,13.40
2023-05-19T02:09:43.351Z,13.57
2023-05-19T02:12:18.105Z,13.39
2023-05-19T02:14:49.003Z,13.35
2023-05-19T02:17:19.483Z,13.61
2023-05-19T02:19:49.262Z,13.56
2023-05-19T02:22:17.338Z,13.38
2023-05-19T02:24:46.736Z,13.37
2023-05-19T02:27:14.739Z,13.39
2023-05-19T02:29:44.539Z,13.28
2023-05-19T02:32:12.749Z,13.26
2023-05-19T02:34:42.138Z,13.52
2023-05-19T02:37:12.450Z,13.61
2023-05-19T02:39:40.743Z,13.64
2023-05-19T02:42:09.214Z,13.73
2023-05-19T02:44:37.592Z,13.63
2023-05-19T02:47:05.942Z,13.46
2023-05-19T02:49:36.017Z,13.34
2023-05-19T02:52:04.403Z,13.25
2023-05-19T02:54:35.328Z,13.28
2023-05-19T02:57:03.596Z,13.38
2023-05-19T02:59:32.257Z,13.23
2023-05-19T03:02:01.450Z,13.19
2023-05-19T03:04:30.491Z,13.33
2023-05-19T03:06:58.602Z,13.41
2023-05-19T03:09:27.052Z,13.29
2023-05-19T03:11:56.452Z,12.97
2023-05-19T03:14:24.810Z,13.38
2023-05-19T03:16:53.308Z,13.27
2023-05-19T03:19:21.800Z,13.22
2023-05-19T03:21:49.909Z,13.14
2023-05-19T03:24:18.288Z,13.05
2023-05-19T03:26:47.701Z,12.94
2023-05-19T03:29:17.628Z,12.82
2023-05-19T03:31:46.651Z,12.75
2023-05-19T03:34:16.699Z,12.46
2023-05-19T03:36:45.078Z,12.42
2023-05-19T03:39:17.147Z,12.43
2023-05-19T03:41:46.684Z,12.36
2023-05-19T03:44:14.961Z,12.23
2023-05-19T03:46:44.504Z,12.24
2023-05-19T03:49:44.759Z,12.39
2023-05-19T03:52:31.535Z,12.68
2023-05-19T03:55:21.361Z,12.51
2023-05-19T03:57:49.625Z,12.59
2023-05-19T04:00:18.612Z,12.44
2023-05-19T04:02:48.054Z,12.01
2023-05-19T04:05:16.874Z,12.16
2023-05-19T04:07:46.607Z,12.13
2023-05-19T04:10:15.075Z,12.50
2023-05-19T04:12:43.120Z,12.10
2023-05-19T04:15:12.547Z,12.19
2023-05-19T04:17:41.880Z,12.29
2023-05-19T04:20:13.564Z,12.25
2023-05-19T04:22:41.676Z,12.19
2023-05-19T04:25:10.302Z,12.32
2023-05-19T04:27:39.531Z,12.44
2023-05-19T04:30:09.382Z,12.29
2023-05-19T04:32:39.653Z,12.54
2023-05-19T04:35:08.728Z,12.47
2023-05-19T04:37:39.076Z,12.86
2023-05-19T04:40:11.066Z,12.87
2023-05-19T04:42:41.503Z,12.84
2023-05-19T04:45:12.367Z,12.88
2023-05-19T04:47:43.040Z,12.65
2023-05-19T04:50:12.869Z,12.55
2023-05-19T04:52:42.581Z,12.80
2023-05-19T04:55:13.067Z,12.86
2023-05-19T04:57:41.816Z,12.86
2023-05-19T05:00:13.708Z,12.95
2023-05-19T05:03:08.285Z,12.94
2023-05-19T05:05:36.825Z,12.98
2023-05-19T05:08:07.071Z,12.93
2023-05-19T05:10:39.731Z,12.88
2023-05-19T05:13:10.507Z,13.07
2023-05-19T05:15:44.109Z,12.97
2023-05-19T05:18:13.040Z,12.89
2023-05-19T05:20:42.520Z,13.05
2023-05-19T05:23:14.513Z,13.16
2023-05-19T05:25:45.779Z,13.24
2023-05-19T05:28:15.609Z,13.45
2023-05-19T05:30:44.904Z,13.53
2023-05-19T05:33:15.057Z,13.48
2023-05-19T05:35:43.539Z,13.64
2023-05-19T05:38:14.989Z,13.65
2023-05-19T05:40:43.895Z,13.82
2023-05-19T05:43:11.997Z,13.85
2023-05-19T05:45:47.067Z,13.75
2023-05-19T05:48:16.042Z,13.85
2023-05-19T05:50:45.407Z,14.02
2023-05-19T05:53:19.708Z,14.06
2023-05-19T05:55:51.124Z,14.10
2023-05-19T05:58:21.210Z,14.28
2023-05-19T06:00:51.451Z,14.14
2023-05-19T06:03:21.979Z,14.24
2023-05-19T06:05:50.674Z,14.33
2023-05-19T06:08:20.821Z,14.23
2023-05-19T06:10:49.141Z,14.38
2023-05-19T06:13:22.518Z,14.41
2023-05-19T06:15:51.944Z,14.33
2023-05-19T06:18:31.800Z,14.40
2023-05-19T06:21:00.521Z,14.30
2023-05-19T06:23:31.551Z,14.32
2023-05-19T06:26:00.805Z,14.28
2023-05-19T06:28:28.870Z,14.32
2023-05-19T06:30:57.559Z,14.36
2023-05-19T06:33:44.116Z,14.39
2023-05-19T06:36:12.432Z,14.29
2023-05-19T06:38:44.437Z,14.24
2023-05-19T06:41:13.648Z,14.16
2023-05-19T06:43:43.241Z,14.12
2023-05-19T06:46:17.646Z,14.02
2023-05-19T06:48:46.151Z,14.19
2023-05-19T06:51:15.628Z,14.33
2023-05-19T06:53:45.984Z,14.45
2023-05-19T06:56:14.955Z,14.61
2023-05-19T06:58:43.611Z,14.67
2023-05-19T07:01:12.760Z,14.91
2023-05-19T07:03:46.703Z,15.04
2023-05-19T07:06:16.160Z,15.25
2023-05-19T07:08:45.920Z,15.32
2023-05-19T07:11:14.535Z,15.36
2023-05-19T07:13:43.525Z,15.60
2023-05-19T07:16:12.427Z,15.45
2023-05-19T07:18:40.989Z,15.48
2023-05-19T07:21:09.332Z,15.65
2023-05-19T07:23:39.619Z,15.63
2023-05-19T07:26:09.569Z,15.62
2023-05-19T07:28:39.876Z,15.80
2023-05-19T07:31:10.159Z,15.77
2023-05-19T07:33:38.183Z,15.69
2023-05-19T07:36:06.651Z,15.74
2023-05-19T07:38:35.698Z,15.94
2023-05-19T07:41:04.803Z,16.05
2023-05-19T07:43:34.213Z,16.14
2023-05-19T07:46:02.559Z,16.04
2023-05-19T07:48:30.633Z,16.12
2023-05-19T07:50:58.873Z,16.15
2023-05-19T07:53:27.920Z,16.24
2023-05-19T07:55:58.404Z,16.25
2023-05-19T07:58:27.945Z,16.36
2023-05-19T08:00:59.374Z,16.65
2023-05-19T08:03:27.629Z,16.66
2023-05-19T08:05:56.322Z,16.78
2023-05-19T08:08:24.491Z,16.58
2023-05-19T08:10:52.765Z,16.69
2023-05-19T08:13:20.895Z,16.67
2023-05-19T08:15:49.212Z,16.70
2023-05-19T08:18:18.581Z,16.83
2023-05-19T08:20:46.982Z,16.90
2023-05-19T08:23:14.986Z,16.73
2023-05-19T08:25:43.404Z,16.73
2023-05-19T08:28:11.552Z,16.78
2023-05-19T08:30:39.922Z,16.84
2023-05-19T08:33:08.329Z,17.18
2023-05-19T08:35:38.005Z,17.10
2023-05-19T08:38:06.263Z,17.35
2023-05-19T08:40:34.850Z,17.47
2023-05-19T08:43:03.126Z,17.28
2023-05-19T08:45:31.791Z,17.42
2023-05-19T08:48:00.264Z,17.30
2023-05-19T08:50:32.066Z,17.54
2023-05-19T08:53:05.689Z,17.72
2023-05-19T08:55:36.380Z,17.61
2023-05-19T08:58:05.424Z,17.75
2023-05-19T09:00:34.107Z,17.83
2023-05-19T09:03:17.587Z,17.89
2023-05-19T09:05:47.016Z,17.80
2023-05-19T09:08:16.498Z,17.72
2023-05-19T09:10:44.988Z,17.78
2023-05-19T09:13:13.084Z,17.74
2023-05-19T09:15:43.425Z,17.93
2023-05-19T09:18:12.752Z,18.06
2023-05-19T09:20:42.483Z,18.22
2023-05-19T09:23:14.786Z,18.41
2023-05-19T09:25:51.361Z,18.44
2023-05-19T09:28:27.177Z,18.49
2023-05-19T09:31:02.401Z,18.54
2023-05-19T09:33:31.395Z,18.72
2023-05-19T09:35:59.759Z,18.86
2023-05-19T09:38:29.326Z,18.93
2023-05-19T09:40:59.875Z,18.91
2023-05-19T09:43:28.545Z,18.97
2023-05-19T09:46:00.191Z,18.97
2023-05-19T09:48:28.665Z,19.10
2023-05-19T09:50:57.887Z,19.36
2023-05-19T09:53:26.415Z,19.40
2023-05-19T09:55:57.506Z,19.56
2023-05-19T09:58:27.878Z,19.70
2023-05-19T10:00:56.786Z,19.92
2023-05-19T10:03:26.401Z,19.95
2023-05-19T10:05:54.833Z,20.03
2023-05-19T10:08:24.356Z,20.14
2023-05-19T10:10:52.850Z,20.17
2023-05-19T10:13:22.569Z,20.25
2023-05-19T10:15:58.669Z,20.28
2023-05-19T10:18:29.248Z,20.25
2023-05-19T10:20:58.819Z,20.28
2023-05-19T10:23:27.097Z,20.23
2023-05-19T10:25:57.716Z,20.30
2023-05-19T10:28:28.097Z,20.37
2023-05-19T10:30:59.998Z,20.50
2023-05-19T10:33:33.993Z,20.49
2023-05-19T10:36:17.478Z,20.60
2023-05-19T10:38:50.051Z,20.56
2023-05-19T10:41:32.166Z,20.67
2023-05-19T10:44:06.521Z,20.83
2023-05-19T10:46:36.466Z,20.87
2023-05-19T10:49:04.827Z,20.87
2023-05-19T10:51:33.339Z,20.87
2023-05-19T10:54:02.840Z,21.01
2023-05-19T10:56:33.835Z,21.21
2023-05-19T10:59:02.400Z,21.13
2023-05-19T11:01:33.270Z,21.04
2023-05-19T11:04:07.582Z,21.01
2023-05-19T11:06:37.733Z,21.13
2023-05-19T11:09:13.305Z,21.40
2023-05-19T11:11:47.619Z,21.44
2023-05-19T11:14:16.876Z,21.41
2023-05-19T11:16:48.011Z,21.57
2023-05-19T11:19:21.500Z,21.74
2023-05-19T11:21:52.394Z,21.65
2023-05-19T11:24:37.258Z,21.95
2023-05-19T11:27:20.000Z,22.04
2023-05-19T11:29:48.421Z,22.09
2023-05-19T11:32:16.884Z,22.07
2023-05-19T11:34:46.644Z,22.13
2023-05-19T11:37:14.945Z,22.17
2023-05-19T11:39:43.730Z,22.18
2023-05-19T11:42:12.090Z,22.13
2023-05-19T11:44:41.132Z,21.98
2023-05-19T11:47:10.213Z,21.96
2023-05-19T11:49:38.277Z,21.86
2023-05-19T11:52:08.141Z,21.87
2023-05-19T11:54:37.299Z,21.80
2023-05-19T11:57:06.380Z,21.86
2023-05-19T11:59:36.434Z,21.83
2023-05-19T12:02:17.670Z,21.78
2023-05-19T12:04:45.965Z,21.92
2023-05-19T12:07:18.336Z,21.96
2023-05-19T12:09:47.258Z,21.90
2023-05-19T12:12:17.491Z,22.00
2023-05-19T12:14:47.612Z,21.82
2023-05-19T12:17:17.522Z,21.73
2023-05-19T12:19:47.119Z,21.91
2023-05-19T12:22:18.355Z,21.73
2023-05-19T12:24:47.338Z,21.69
2023-05-19T12:27:19.327Z,21.62
2023-05-19T12:29:50.753Z,21.50
2023-05-19T12:32:19.621Z,21.51
2023-05-19T12:34:47.815Z,21.60
2023-05-19T12:37:17.625Z,21.49
2023-05-19T12:39:45.916Z,21.42
2023-05-19T12:42:14.199Z,21.37
2023-05-19T12:44:46.594Z,21.36
2023-05-19T12:47:16.505Z,21.36
2023-05-19T12:49:57.297Z,21.29
2023-05-19T12:52:27.799Z,21.44
2023-05-19T12:54:59.925Z,21.36
2023-05-19T12:57:29.098Z,21.54
2023-05-19T13:00:01.723Z,21.51
2023-05-19T13:02:31.081Z,21.63
2023-05-19T13:04:59.611Z,21.74
2023-05-19T13:07:29.387Z,21.69
2023-05-19T13:09:57.682Z,21.68
2023-05-19T13:12:26.213Z,21.54
2023-05-19T13:14:55.898Z,21.53
2023-05-19T13:17:24.586Z,21.49
2023-05-19T13:19:52.947Z,21.48
2023-05-19T13:22:21.538Z,21.31
2023-05-19T13:24:53.160Z,21.42
2023-05-19T13:27:22.625Z,21.46
2023-05-19T13:29:50.692Z,21.44
2023-05-19T13:32:19.125Z,21.26
2023-05-19T13:34:47.310Z,21.23
2023-05-19T13:37:15.657Z,21.31
2023-05-19T13:39:43.789Z,21.06
2023-05-19T13:42:13.534Z,20.94
2023-05-19T13:44:41.693Z,20.89
2023-05-19T13:47:10.072Z,20.84
2023-05-19T13:49:38.181Z,20.57
2023-05-19T13:52:07.784Z,20.62
2023-05-19T13:54:35.921Z,20.77
2023-05-19T13:57:04.395Z,20.71
2023-05-19T13:59:35.140Z,20.70
2023-05-19T14:02:06.428Z,20.66
2023-05-19T14:04:37.315Z,20.78
2023-05-19T14:07:06.239Z,20.74
2023-05-19T14:09:34.892Z,20.71
2023-05-19T14:12:03.314Z,20.74
2023-05-19T14:14:31.465Z,20.73
2023-05-19T14:17:01.090Z,20.40
2023-05-19T14:19:30.417Z,20.52
2023-05-19T14:21:58.750Z,20.51
2023-05-19T14:24:26.928Z,20.76
2023-05-19T14:26:55.202Z,20.78
2023-05-19T14:29:23.227Z,20.94
2023-05-19T14:31:51.548Z,21.10
2023-05-19T14:34:21.199Z,21.19
2023-05-19T14:36:49.620Z,21.29
2023-05-19T14:39:17.682Z,21.30
2023-05-19T14:41:46.094Z,21.27
2023-05-19T14:44:14.122Z,21.37
2023-05-19T14:46:42.420Z,21.24
2023-05-19T14:49:10.713Z,21.34
2023-05-19T14:51:40.360Z,21.61
2023-05-19T14:54:08.465Z,21.87
2023-05-19T14:56:36.931Z,22.10
2023-05-19T14:59:05.344Z,22.28
2023-05-19T15:01:33.643Z,22.29
2023-05-19T15:04:01.869Z,22.06
2023-05-19T15:06:30.581Z,22.10
2023-05-19T15:08:59.961Z,22.03
2023-05-19T15:11:28.296Z,21.79
2023-05-19T15:13:56.328Z,21.72
2023-05-19T15:16:24.760Z,21.50
2023-05-19T15:18:53.258Z,21.69
2023-05-19T15:21:21.862Z,21.41
2023-05-19T15:23:49.951Z,21.63
2023-05-19T15:26:19.570Z,21.54
2023-05-19T15:28:50.634Z,21.32
2023-05-19T15:31:18.985Z,21.36
2023-05-19T15:33:47.106Z,21.51
2023-05-19T15:36:16.541Z,21.35
2023-05-19T15:38:44.847Z,21.47
2023-05-19T15:41:13.145Z,21.43
2023-05-19T15:43:42.576Z,21.54
2023-05-19T15:46:13.073Z,21.47
2023-05-19T15:48:41.148Z,21.34
2023-05-19T15:51:09.483Z,21.21
2023-05-19T15:53:37.571Z,21.19
2023-05-19T15:56:06.332Z,20.96
2023-05-19T15:58:34.406Z,20.83
2023-05-19T16:01:04.271Z,20.65
2023-05-19T16:03:32.680Z,20.51
2023-05-19T16:06:01.584Z,20.63
2023-05-19T16:08:29.720Z,20.31
2023-05-19T16:10:58.029Z,20.35
2023-05-19T16:13:26.066Z,20.38
2023-05-19T16:15:54.406Z,20.16
2023-05-19T16:18:23.970Z,20.27
2023-05-19T16:20:52.505Z,20.09
2023-05-19T16:23:20.524Z,20.03
2023-05-19T16:25:49.379Z,19.83
2023-05-19T16:28:17.644Z,19.92
2023-05-19T16:30:46.060Z,19.85
2023-05-19T16:33:14.091Z,19.98
2023-05-19T16:35:43.805Z,19.93
2023-05-19T16:38:11.900Z,19.88
2023-05-19T16:40:40.522Z,19.85
2023-05-19T16:43:08.694Z,19.80
2023-05-19T16:45:37.111Z,19.90
2023-05-19T16:48:05.520Z,20.06
2023-05-19T16:50:34.031Z,19.98
2023-05-19T16:53:03.743Z,20.08
2023-05-19T16:55:32.055Z,20.26
2023-05-19T16:58:00.510Z,20.34
2023-05-19T17:00:29.746Z,20.10
2023-05-19T17:02:57.920Z,20.04
2023-05-19T17:05:27.171Z,20.17
2023-05-19T17:07:55.250Z,20.28
2023-05-19T17:10:24.889Z,20.57
2023-05-19T17:12:53.013Z,20.61
2023-05-19T17:15:21.287Z,20.64
2023-05-19T17:17:49.372Z,20.55
2023-05-19T17:20:17.822Z,20.38
2023-05-19T17:22:45.804Z,20.33
2023-05-19T17:25:14.116Z,20.31
2023-05-19T17:27:43.507Z,20.40
2023-05-19T17:30:12.847Z,20.33
2023-05-19T17:32:41.114Z,20.15
2023-05-19T17:35:09.794Z,20.10
2023-05-19T17:37:37.955Z,20.09
2023-05-19T17:40:07.617Z,20.17
2023-05-19T17:42:35.675Z,19.98
2023-05-19T17:45:07.471Z,19.81
2023-05-19T17:47:35.597Z,19.91
2023-05-19T17:50:04.150Z,19.93
2023-05-19T17:52:33.032Z,19.96
2023-05-19T17:55:01.969Z,19.83
2023-05-19T17:57:32.014Z,19.76
2023-05-19T18:00:01.220Z,19.97
2023-05-19T18:02:31.494Z,19.77
2023-05-19T18:05:01.007Z,20.00
2023-05-19T18:07:29.313Z,19.86
2023-05-19T18:09:57.852Z,19.89
2023-05-19T18:12:26.164Z,19.63
2023-05-19T18:14:54.402Z,19.68
2023-05-19T18:17:22.442Z,19.65
2023-05-19T18:19:52.044Z,19.73
2023-05-19T18:22:20.208Z,19.72
2023-05-19T18:24:48.489Z,19.45
2023-05-19T18:27:16.546Z,19.42
2023-05-19T18:29:44.797Z,19.39
2023-05-19T18:32:14.250Z,19.45
2023-05-19T18:34:42.774Z,19.43
2023-05-19T18:37:12.209Z,19.28
2023-05-19T18:39:40.499Z,19.26
2023-05-19T18:42:08.489Z,19.35
2023-05-19T18:44:36.788Z,19.27
2023-05-19T18:47:05.017Z,19.10
2023-05-19T18:49:33.325Z,19.07
2023-05-19T18:52:01.497Z,19.01
2023-05-19T18:54:32.450Z,18.87
2023-05-19T18:57:01.266Z,18.76
2023-05-19T18:59:29.568Z,18.71
2023-05-19T19:01:57.613Z,18.69
2023-05-19T19:04:26.033Z,18.59
2023-05-19T19:06:54.204Z,18.97
2023-05-19T19:09:22.556Z,18.79
2023-05-19T19:11:51.969Z,18.72
2023-05-19T19:14:20.309Z,18.61
2023-05-19T19:16:48.409Z,18.51
2023-05-19T19:19:16.739Z,18.50
2023-05-19T19:21:44.770Z,18.55
2023-05-19T19:24:13.569Z,18.46
2023-05-19T19:26:41.586Z,18.73
2023-05-19T19:29:11.150Z,18.50
2023-05-19T19:31:39.503Z,18.42
2023-05-19T19:34:09.361Z,18.38
2023-05-19T19:36:37.430Z,18.44
2023-05-19T19:39:05.676Z,18.48
2023-05-19T19:41:33.775Z,18.57
2023-05-19T19:44:02.089Z,18.63
2023-05-19T19:46:31.565Z,18.57
2023-05-19T19:49:00.321Z,18.52
2023-05-19T19:51:28.398Z,18.62
2023-05-19T19:53:56.883Z,18.66
2023-05-19T19:56:26.138Z,18.57
2023-05-19T19:58:56.778Z,18.46
2023-05-19T20:01:27.565Z,18.32
2023-05-19T20:03:57.964Z,18.32
2023-05-19T20:06:26.136Z,18.26
2023-05-19T20:08:54.368Z,18.22
2023-05-19T20:11:24.376Z,18.35
2023-05-19T20:13:53.021Z,18.26
2023-05-19T20:16:21.174Z,18.20
2023-05-19T20:18:49.514Z,18.24
2023-05-19T20:21:18.967Z,18.23
2023-05-19T20:23:47.296Z,18.16
2023-05-19T20:26:15.916Z,18.07
2023-05-19T20:28:44.308Z,18.10
2023-05-19T20:31:12.326Z,18.09
2023-05-19T20:33:40.635Z,18.03
2023-05-19T20:36:08.749Z,17.74
2023-05-19T20:38:38.379Z,17.96
2023-05-19T20:41:06.447Z,18.01
2023-05-19T20:43:35.144Z,17.87
2023-05-19T20:46:03.768Z,17.88
2023-05-19T20:48:32.260Z,17.88
2023-05-19T20:51:00.537Z,17.88
2023-05-19T20:53:28.831Z,17.87
2023-05-19T20:55:58.234Z,17.77
2023-05-19T20:58:30.065Z,17.63
2023-05-19T21:00:58.335Z,17.70
2023-05-19T21:03:27.157Z,17.66
2023-05-19T21:05:55.535Z,17.66
2023-05-19T21:08:24.207Z,17.57
2023-05-19T21:10:52.603Z,17.46
2023-05-19T21:13:22.287Z,17.51
2023-05-19T21:15:50.296Z,17.40
2023-05-19T21:18:18.558Z,17.42
2023-05-19T21:20:46.682Z,17.27
2023-05-19T21:23:14.965Z,17.30
2023-05-19T21:25:45.200Z,17.32
2023-05-19T21:28:13.868Z,17.34
2023-05-19T21:30:44.341Z,17.36
2023-05-19T21:33:12.758Z,17.30
2023-05-19T21:35:40.813Z,17.22
2023-05-19T21:38:22.698Z,17.13
2023-05-19T21:40:52.769Z,17.17
2023-05-19T21:43:21.720Z,17.14
2023-05-19T21:45:51.120Z,17.13
2023-05-19T21:48:19.489Z,16.95
2023-05-19T21:50:47.553Z,17.06
2023-05-19T21:53:15.799Z,16.92
2023-05-19T21:55:44.391Z,17.01
2023-05-19T21:58:12.830Z,17.03
2023-05-19T22:00:40.908Z,16.97
2023-05-19T22:03:10.633Z,16.87
2023-05-19T22:05:39.072Z,16.85
2023-05-19T22:08:07.353Z,16.83
2023-05-19T22:10:37.074Z,16.75
2023-05-19T22:13:05.534Z,16.67
2023-05-19T22:15:33.508Z,16.63
2023-05-19T22:18:01.839Z,16.55
2023-05-19T22:20:31.616Z,16.58
2023-05-19T22:23:01.139Z,16.64
2023-05-19T22:25:29.146Z,16.70
2023-05-19T22:27:57.642Z,16.65
2023-05-19T22:30:25.706Z,16.52
2023-05-19T22:32:54.121Z,16.64
2023-05-19T22:35:22.664Z,16.66
2023-05-19T22:37:52.255Z,16.63
2023-05-19T22:40:20.530Z,16.53
2023-05-19T22:42:48.780Z,16.68
2023-05-19T22:45:16.781Z,16.71
2023-05-19T22:47:45.133Z,16.63
2023-05-19T22:50:13.205Z,16.57
2023-05-19T22:52:41.677Z,16.66
2023-05-19T22:55:11.339Z,16.55
2023-05-19T22:57:39.697Z,16.52
2023-05-19T23:00:09.644Z,16.50
2023-05-19T23:02:37.990Z,16.53
2023-05-19T23:05:06.955Z,16.56
2023-05-19T23:07:35.387Z,16.60
2023-05-19T23:10:05.816Z,16.47
2023-05-19T23:12:35.674Z,16.46
2023-05-19T23:15:03.839Z,16.29
2023-05-19T23:17:32.901Z,16.28
2023-05-19T23:20:00.948Z,16.20
2023-05-19T23:22:29.249Z,16.21
2023-05-19T23:24:57.302Z,16.36
2023-05-19T23:27:25.592Z,16.39
2023-05-19T23:29:55.052Z,16.50
2023-05-19T23:32:23.510Z,16.50
2023-05-19T23:34:51.512Z,16.36
2023-05-19T23:37:19.830Z,16.42
2023-05-19T23:39:47.808Z,16.36
2023-05-19T23:42:16.119Z,16.40
2023-05-19T23:44:44.143Z,16.40
2023-05-19T23:47:13.728Z,16.40
2023-05-19T23:49:41.763Z,16.40
2023-05-19T23:52:10.015Z,16.32
2023-05-19T23:54:38.075Z,16.34
2023-05-19T23:57:06.750Z,16.37
2023-05-19T23:59:34.989Z,16.41
